createdAt,value
2022-11-03T00:06:39.486Z,48.32
2022-11-03T00:13:24.854Z,48.57
2022-11-03T00:20:15.049Z,48.89
2022-11-03T00:27:00.442Z,48.42
2022-11-03T00:33:48.222Z,48.68
2022-11-03T00:40:36.184Z,48.39
2022-11-03T00:47:24.191Z,48.66
2022-11-03T00:54:10.120Z,48.73
2022-11-03T01:01:05.827Z,48.96
2022-11-03T01:07:51.454Z,48.93
2022-11-03T01:14:39.615Z,48.99
2022-11-03T01:21:28.329Z,48.99
2022-11-03T01:28:13.939Z,48.67
2022-11-03T01:34:59.456Z,48.84
2022-11-03T01:41:50.027Z,49.09
2022-11-03T01:48:37.144Z,48.95
2022-11-03T01:55:25.557Z,48.99
2022-11-03T02:02:13.703Z,49.40
2022-11-03T02:09:06.585Z,49.44
2022-11-03T02:15:57.094Z,49.10
2022-11-03T02:23:21.154Z,49.33
2022-11-03T02:30:13.811Z,49.22
2022-11-03T02:37:10.519Z,49.33
2022-11-03T02:43:58.838Z,49.09
2022-11-03T02:50:47.317Z,49.51
2022-11-03T02:57:36.270Z,49.30
2022-11-03T03:04:31.742Z,49.37
2022-11-03T03:11:39.023Z,49.33
2022-11-03T03:18:30.842Z,49.42
2022-11-03T03:25:21.876Z,49.71
2022-11-03T03:32:14.410Z,49.43
2022-11-03T03:39:05.258Z,49.28
2022-11-03T04:06:35.427Z,49.47
2022-11-03T04:13:33.495Z,49.43
2022-11-03T04:20:31.624Z,49.65
2022-11-03T04:27:38.870Z,49.85
2022-11-03T04:34:24.411Z,49.17
2022-11-03T04:41:19.288Z,49.84
2022-11-03T04:48:18.304Z,49.72
2022-11-03T04:55:12.232Z,49.27
2022-11-03T05:01:58.156Z,49.72
2022-11-03T05:08:49.963Z,49.38
2022-11-03T05:15:40.385Z,50.18
2022-11-03T05:22:29.205Z,49.81
2022-11-03T05:29:22.810Z,49.79
2022-11-03T05:36:17.630Z,50.05
2022-11-03T05:43:11.156Z,49.88
2022-11-03T05:50:12.926Z,50.16
2022-11-03T05:57:00.743Z,50.16
2022-11-03T06:03:46.931Z,49.91
2022-11-03T06:10:42.536Z,50.19
2022-11-03T06:17:31.314Z,50.15
2022-11-03T06:24:18.617Z,49.98
2022-11-03T06:31:09.446Z,50.16
2022-11-03T06:38:00.301Z,50.43
2022-11-03T06:44:50.105Z,50.30
2022-11-03T06:51:40.212Z,50.44
2022-11-03T06:58:33.967Z,50.70
2022-11-03T07:05:26.007Z,50.81
2022-11-03T07:12:20.357Z,50.79
2022-11-03T07:19:13.506Z,50.89
2022-11-03T07:26:03.758Z,51.02
2022-11-03T07:32:59.206Z,50.83
2022-11-03T07:39:45.303Z,51.31
2022-11-03T07:46:31.468Z,51.32
2022-11-03T07:53:26.208Z,51.64
2022-11-03T08:00:22.804Z,51.56
2022-11-03T08:07:08.763Z,51.75
2022-11-03T08:13:57.360Z,51.29
2022-11-03T08:20:43.182Z,51.95
2022-11-03T08:27:28.973Z,51.95
2022-11-03T08:34:17.391Z,51.91
2022-11-03T08:41:04.157Z,52.06
2022-11-03T08:47:50.109Z,51.22
2022-11-03T08:54:40.746Z,52.19
2022-11-03T09:01:26.552Z,52.55
2022-11-03T09:15:21.640Z,52.88
2022-11-03T09:22:07.527Z,52.47
2022-11-03T09:28:53.489Z,52.54
2022-11-03T09:35:44.462Z,52.95
2022-11-03T09:42:30.777Z,52.68
2022-11-03T09:49:19.137Z,52.60
2022-11-03T09:56:08.563Z,52.76
2022-11-03T10:02:55.509Z,52.43
2022-11-03T10:09:44.880Z,51.58
2022-11-03T10:16:36.607Z,52.05
2022-11-03T10:23:22.659Z,52.03
2022-11-03T10:30:12.700Z,52.05
2022-11-03T10:37:22.566Z,52.45
2022-11-03T10:44:21.572Z,52.23
2022-11-03T10:51:07.638Z,52.37
2022-11-03T10:57:58.433Z,52.39
2022-11-03T11:04:48.641Z,52.52
2022-11-03T11:11:34.702Z,52.44
2022-11-03T11:19:16.950Z,52.44
2022-11-03T11:26:51.202Z,52.64
2022-11-03T11:33:37.549Z,52.99
2022-11-03T11:40:57.069Z,52.70
2022-11-03T11:47:53.628Z,53.08
2022-11-03T11:54:39.563Z,52.78
2022-11-03T12:01:29.829Z,52.97
2022-11-03T12:08:31.505Z,53.41
2022-11-03T12:15:56.035Z,53.32
2022-11-03T12:22:48.463Z,53.44
2022-11-03T12:29:36.963Z,53.36
2022-11-03T12:36:22.936Z,53.33
2022-11-03T12:43:09.063Z,53.23
2022-11-03T12:49:57.714Z,53.81
2022-11-03T12:56:43.672Z,53.47
2022-11-03T13:03:30.036Z,53.49
2022-11-03T13:10:19.255Z,53.65
2022-11-03T13:17:05.242Z,53.52
2022-11-03T13:23:53.200Z,53.73
2022-11-03T13:30:41.874Z,54.15
2022-11-03T13:37:27.799Z,53.82
2022-11-03T13:44:13.649Z,54.20
2022-11-03T13:51:02.845Z,54.18
2022-11-03T14:04:54.675Z,53.47
2022-11-03T14:11:55.643Z,53.89
2022-11-03T14:18:41.630Z,53.41
2022-11-03T14:25:30.334Z,53.47
2022-11-03T14:32:21.807Z,52.98
2022-11-03T14:39:07.888Z,53.10
2022-11-03T14:45:54.374Z,53.04
2022-11-03T14:52:45.110Z,53.08
2022-11-03T14:59:31.170Z,52.63
2022-11-03T15:06:17.245Z,52.93
2022-11-03T15:13:06.128Z,52.37
2022-11-03T15:19:52.118Z,52.34
2022-11-03T15:26:37.955Z,52.27
2022-11-03T15:33:26.582Z,52.32
2022-11-03T15:40:16.833Z,52.09
2022-11-03T15:47:05.453Z,52.46
2022-11-03T15:53:58.896Z,52.20
2022-11-03T16:00:45.291Z,51.89
2022-11-03T16:07:31.210Z,52.22
2022-11-03T16:14:21.301Z,52.03
2022-11-03T16:21:09.670Z,52.17
2022-11-03T16:28:00.865Z,51.89
2022-11-03T16:34:50.025Z,51.59
2022-11-03T16:41:35.746Z,51.70
2022-11-03T16:48:22.429Z,52.29
2022-11-03T16:55:15.229Z,52.29
2022-11-03T17:02:01.300Z,52.31
2022-11-03T17:08:52.724Z,52.47
2022-11-03T17:15:44.253Z,52.91
2022-11-03T17:22:30.239Z,52.77
2022-11-03T17:29:21.483Z,52.62
2022-11-03T17:36:12.368Z,52.79
2022-11-03T17:42:58.535Z,52.43
2022-11-03T17:49:44.935Z,52.47
2022-11-03T17:56:34.127Z,52.34
2022-11-03T18:03:22.428Z,52.81
2022-11-03T18:10:09.471Z,52.87
2022-11-03T18:17:03.206Z,52.86
2022-11-03T18:23:53.231Z,53.29
2022-11-03T18:30:40.632Z,53.57
2022-11-03T18:37:34.777Z,53.83
2022-11-03T18:44:26.545Z,54.08
2022-11-03T18:51:35.564Z,53.77
2022-11-03T18:58:30.912Z,54.44
2022-11-03T19:05:20.652Z,54.46
2022-11-03T19:12:06.948Z,54.20
2022-11-03T19:19:01.050Z,54.39
2022-11-03T19:25:52.247Z,54.28
2022-11-03T19:32:44.509Z,54.52
2022-11-03T19:39:36.008Z,54.46
2022-11-03T19:46:23.301Z,54.80
2022-11-03T19:53:11.062Z,54.55
2022-11-03T20:00:00.766Z,55.33
2022-11-03T20:06:53.198Z,53.88
2022-11-03T20:13:45.771Z,54.87
2022-11-03T20:20:39.097Z,55.15
2022-11-03T20:27:26.209Z,54.92
2022-11-03T20:34:16.738Z,55.89
2022-11-03T20:41:10.263Z,56.19
2022-11-03T20:47:57.544Z,57.35
2022-11-03T20:54:45.184Z,58.04
2022-11-03T21:01:37.307Z,58.90
2022-11-03T21:08:23.334Z,59.64
2022-11-03T21:15:30.764Z,60.19
2022-11-03T21:22:50.810Z,60.68
2022-11-03T21:29:57.954Z,61.02
2022-11-03T21:36:36.919Z,61.25
2022-11-03T21:43:38.399Z,61.64
2022-11-03T21:50:24.386Z,62.12
2022-11-03T21:57:11.763Z,62.11
2022-11-03T22:04:02.049Z,62.64
2022-11-03T22:10:51.131Z,62.92
2022-11-03T22:17:38.175Z,62.35
2022-11-03T22:24:39.384Z,62.54
2022-11-03T22:31:48.952Z,62.97
2022-11-03T22:38:47.034Z,63.20
2022-11-03T22:45:47.815Z,63.66
2022-11-03T22:52:36.109Z,63.81
2022-11-03T22:59:22.116Z,63.81
2022-11-03T23:06:14.137Z,64.60
2022-11-03T23:13:00.303Z,64.75
2022-11-03T23:20:00.299Z,64.69
2022-11-03T23:26:49.861Z,64.77
2022-11-03T23:33:35.823Z,64.44
2022-11-03T23:40:24.534Z,64.80
2022-11-03T23:47:25.783Z,64.99
2022-11-03T23:54:14.523Z,65.17
